Time;durP1;ratioP1;P1;durP2;ratioP2;P2;SDS_P1;SDS_P2;PMS_P1;PMS_P2;Temp;Humidity;BMP_temperature;BMP_pressure;BME280_temperature;BME280_humidity;BME280_pressure;Samples;Min_cycle;Max_cycle;Signal;HPM_P1;HPM_P2
2023/01/12 00:04:44;;;;;;;25.80;4.25;;;8.10;99.90;;;;;;5048371;28;20524;-83
2023/01/12 00:07:25;;;;;;;22.98;3.60;;;8.10;99.90;;;;;;5016858;28;20049;-83
2023/01/12 00:09:53;;;;;;;19.40;3.17;;;8.20;99.90;;;;;;5034671;28;20047;-83
2023/01/12 00:12:25;;;;;;;22.10;3.95;;;8.20;99.90;;;;;;5054891;28;20048;-83
2023/01/12 00:14:57;;;;;;;23.20;3.28;;;8.20;99.90;;;;;;5038655;28;20040;-83
2023/01/12 00:17:22;;;;;;;17.75;3.13;;;8.20;99.90;;;;;;5022264;28;20036;-84
2023/01/12 00:19:59;;;;;;;15.75;3.08;;;8.20;99.90;;;;;;5039015;28;20043;-84
2023/01/12 00:22:27;;;;;;;23.10;3.78;;;8.20;99.90;;;;;;5027805;28;20137;-84
2023/01/12 00:27:57;;;;;;;18.77;3.63;;;8.20;99.90;;;;;;5037915;28;20071;-84
2023/01/12 00:30:23;;;;;;;19.60;3.30;;;8.20;99.90;;;;;;5040612;28;20048;-84
2023/01/12 00:32:49;;;;;;;17.50;3.33;;;8.20;99.90;;;;;;5042592;28;20040;-84
2023/01/12 00:35:16;;;;;;;20.38;4.70;;;8.30;99.90;;;;;;5042723;28;20046;-84
2023/01/12 00:37:54;;;;;;;15.90;2.88;;;8.30;99.90;;;;;;5027882;28;20044;-84
2023/01/12 00:40:20;;;;;;;15.90;3.10;;;8.30;99.90;;;;;;5059538;28;20500;-84
2023/01/12 00:45:42;;;;;;;15.63;3.15;;;8.30;99.90;;;;;;5059982;28;20067;-84
2023/01/12 00:48:11;;;;;;;18.67;3.70;;;8.30;99.90;;;;;;5027586;28;20378;-83
2023/01/12 00:50:42;;;;;;;18.17;3.50;;;8.30;99.90;;;;;;5042767;28;20048;-83
2023/01/12 00:53:14;;;;;;;15.57;2.95;;;8.30;99.90;;;;;;5043067;28;20041;-84
2023/01/12 00:55:54;;;;;;;17.70;3.65;;;8.30;99.90;;;;;;5058984;28;20055;-84
2023/01/12 00:58:20;;;;;;;14.45;2.67;;;8.40;99.90;;;;;;5040227;28;20047;-84
2023/01/12 01:00:46;;;;;;;19.00;3.78;;;8.40;99.90;;;;;;5041799;28;20044;-83
2023/01/12 01:03:12;;;;;;;18.38;3.78;;;8.40;99.90;;;;;;5048466;28;20063;-83
2023/01/12 01:05:40;;;;;;;15.85;3.53;;;8.40;99.90;;;;;;5072675;28;20043;-83
2023/01/12 01:08:06;;;;;;;19.25;3.63;;;8.30;99.90;;;;;;5048924;28;20036;-84
2023/01/12 01:10:35;;;;;;;21.83;4.60;;;8.30;99.90;;;;;;5043506;28;20128;-83
2023/01/12 01:13:01;;;;;;;18.05;3.85;;;8.20;99.90;;;;;;5043066;28;20076;-83
2023/01/12 01:15:29;;;;;;;22.52;4.25;;;8.30;99.90;;;;;;5057428;28;20044;-83
2023/01/12 01:21:27;;;;;;;21.30;3.47;;;8.30;99.90;;;;;;5047690;28;20040;-83
2023/01/12 01:23:56;;;;;;;19.40;3.25;;;8.30;99.90;;;;;;5064973;28;20041;-83
2023/01/12 01:26:23;;;;;;;19.67;3.78;;;8.30;99.90;;;;;;5065172;28;20045;-83
2023/01/12 01:29:09;;;;;;;17.30;3.72;;;8.30;99.90;;;;;;5042591;28;20044;-83
2023/01/12 01:31:40;;;;;;;11.77;2.53;;;8.30;99.90;;;;;;5058554;28;20393;-83
2023/01/12 01:34:15;;;;;;;22.40;3.72;;;8.30;99.90;;;;;;5067293;28;20040;-83
2023/01/12 01:37:15;;;;;;;25.27;4.35;;;8.30;99.90;;;;;;5043769;28;20049;-83
2023/01/12 01:39:43;;;;;;;21.15;3.58;;;8.30;99.90;;;;;;5052841;28;20051;-83
2023/01/12 01:42:35;;;;;;;22.60;4.05;;;8.40;99.90;;;;;;5040680;28;20536;-83
2023/01/12 01:45:10;;;;;;;22.35;3.95;;;8.40;99.90;;;;;;5041233;28;20066;-83
2023/01/12 01:47:49;;;;;;;22.60;4.57;;;8.30;99.90;;;;;;5056698;28;20048;-83
2023/01/12 01:50:23;;;;;;;23.23;4.53;;;8.40;99.90;;;;;;5033180;28;20111;-83
2023/01/12 01:53:06;;;;;;;27.08;4.60;;;8.40;99.90;;;;;;5020679;28;20072;-84
2023/01/12 01:56:16;;;;;;;16.30;3.13;;;8.40;99.90;;;;;;5040942;28;20154;-84
2023/01/12 01:58:54;;;;;;;22.50;3.83;;;8.40;99.90;;;;;;5020224;28;20049;-83
2023/01/12 02:01:20;;;;;;;17.55;3.70;;;8.40;99.90;;;;;;5036951;28;20036;-83
2023/01/12 02:03:46;;;;;;;30.75;4.18;;;8.40;99.90;;;;;;5036522;28;20048;-83
2023/01/12 02:06:27;;;;;;;21.80;4.25;;;8.40;99.90;;;;;;5017044;28;20135;-83
2023/01/12 02:09:02;;;;;;;18.52;3.42;;;8.40;99.90;;;;;;5018774;28;20102;-84
2023/01/12 02:18:01;;;;;;;21.17;4.15;;;8.40;99.90;;;;;;5025522;28;20055;-83
2023/01/12 02:21:12;;;;;;;25.10;4.28;;;8.50;99.90;;;;;;5025961;28;20095;-83
2023/01/12 02:23:56;;;;;;;26.83;4.40;;;8.50;99.90;;;;;;5019116;28;20046;-83
2023/01/12 02:26:57;;;;;;;27.98;4.30;;;8.60;99.90;;;;;;5028709;28;20086;-83
2023/01/12 02:29:54;;;;;;;25.20;4.60;;;8.60;99.90;;;;;;5016549;28;20145;-83
2023/01/12 02:33:39;;;;;;;25.88;4.03;;;8.70;99.90;;;;;;5004067;28;20045;-83
2023/01/12 02:36:47;;;;;;;22.00;3.92;;;8.70;99.90;;;;;;4977563;28;20117;-83
2023/01/12 02:39:37;;;;;;;23.15;4.15;;;8.70;99.90;;;;;;4976874;28;20121;-83
2023/01/12 02:49:19;;;;;;;19.73;3.90;;;8.70;99.90;;;;;;5074643;28;20052;-83
2023/01/12 02:51:53;;;;;;;17.02;3.47;;;8.70;99.90;;;;;;5070538;28;20115;-83
2023/01/12 02:54:21;;;;;;;20.80;3.75;;;8.70;99.90;;;;;;5063451;28;20119;-83
2023/01/12 02:56:50;;;;;;;14.95;3.75;;;8.70;99.90;;;;;;5054842;28;20052;-83
2023/01/12 02:59:38;;;;;;;16.63;3.00;;;8.70;99.90;;;;;;5064900;28;20124;-83
2023/01/12 03:02:15;;;;;;;23.63;3.80;;;8.70;99.90;;;;;;5061398;28;20041;-83
2023/01/12 03:08:14;;;;;;;16.88;3.10;;;8.70;99.90;;;;;;5025368;28;20087;-83
2023/01/12 03:11:11;;;;;;;15.18;3.20;;;8.70;99.90;;;;;;4952372;28;20054;-83
2023/01/12 03:13:58;;;;;;;20.13;3.17;;;8.70;99.90;;;;;;4973971;28;20049;-83
2023/01/12 03:16:49;;;;;;;13.85;3.03;;;8.70;99.90;;;;;;5039088;28;20055;-82
2023/01/12 03:19:26;;;;;;;10.98;2.85;;;8.70;99.90;;;;;;5087369;28;20141;-83
2023/01/12 03:22:02;;;;;;;17.10;2.92;;;8.70;99.90;;;;;;5051627;28;20087;-83
2023/01/12 03:27:45;;;;;;;13.05;3.45;;;8.70;99.90;;;;;;5054203;28;20045;-83
2023/01/12 03:30:40;;;;;;;8.50;2.28;;;8.70;99.90;;;;;;5046655;28;20093;-83
2023/01/12 03:33:22;;;;;;;11.05;3.05;;;8.70;99.90;;;;;;5019094;28;20087;-83
2023/01/12 03:36:40;;;;;;;13.85;2.72;;;8.70;99.90;;;;;;5014308;28;20049;-83
2023/01/12 03:39:17;;;;;;;11.02;2.58;;;8.70;99.90;;;;;;5033536;28;20056;-83
2023/01/12 03:42:26;;;;;;;15.00;2.70;;;8.70;99.90;;;;;;5030915;28;20181;-83
2023/01/12 03:49:24;;;;;;;9.73;2.70;;;8.70;99.90;;;;;;5061629;28;20426;-83
2023/01/12 03:51:57;;;;;;;12.27;1.95;;;8.70;99.90;;;;;;4923302;28;20059;-83
2023/01/12 03:54:41;;;;;;;8.10;2.35;;;8.80;99.90;;;;;;4943441;29;20058;-82
2023/01/12 03:57:11;;;;;;;6.13;2.28;;;8.80;99.90;;;;;;5007073;28;20045;-83
2023/01/12 03:59:41;;;;;;;5.80;1.98;;;8.80;99.90;;;;;;5022098;28;20041;-83
2023/01/12 04:02:14;;;;;;;15.40;2.80;;;8.80;99.90;;;;;;5055340;28;20037;-83
2023/01/12 04:05:32;;;;;;;9.57;2.80;;;8.80;99.90;;;;;;5030183;28;20041;-83
2023/01/12 04:10:56;;;;;;;9.98;1.92;;;8.80;99.90;;;;;;5039019;28;20052;-83
2023/01/12 04:13:50;;;;;;;6.68;1.95;;;8.80;99.90;;;;;;5030391;28;20041;-83
2023/01/12 04:31:11;;;;;;;6.65;1.88;;;8.70;99.90;;;;;;5041979;28;20443;-87
2023/01/12 04:34:25;;;;;;;;;;;;;;;;;;;;;
2023/01/12 04:37:37;;;;;;;3.85;1.42;;;8.70;99.90;;;;;;5035192;28;20051;-84
2023/01/12 04:54:37;;;;;;;4.45;1.48;;;8.60;99.90;;;;;;4996312;28;20040;-85
2023/01/12 05:11:58;;;;;;;5.20;1.40;;;8.60;99.90;;;;;;5058501;28;20480;-84
2023/01/12 05:15:02;;;;;;;6.32;1.52;;;8.60;99.90;;;;;;5022502;28;20100;-83
2023/01/12 05:17:36;;;;;;;6.07;2.00;;;8.50;99.90;;;;;;5038546;28;20044;-84
2023/01/12 05:20:10;;;;;;;7.45;1.70;;;8.60;99.90;;;;;;5038690;28;20071;-84
2023/01/12 05:26:18;;;;;;;7.90;1.30;;;8.50;99.90;;;;;;5016092;28;20037;-84
2023/01/12 05:29:13;;;;;;;5.03;1.60;;;8.60;99.90;;;;;;5038796;28;20044;-84
2023/01/12 05:31:50;;;;;;;3.85;1.30;;;8.50;99.90;;;;;;5051183;28;20291;-84
2023/01/12 05:34:26;;;;;;;3.53;1.35;;;8.50;99.90;;;;;;5024453;28;20033;-84
2023/01/12 05:37:01;;;;;;;5.13;1.30;;;8.50;99.90;;;;;;5020101;28;20091;-84
2023/01/12 05:39:27;;;;;;;4.68;1.52;;;8.60;99.90;;;;;;5035803;28;20056;-84
2023/01/12 05:45:18;;;;;;;4.57;1.30;;;8.60;99.90;;;;;;5043632;28;20051;-84
2023/01/12 05:48:08;;;;;;;6.45;1.40;;;8.60;99.90;;;;;;5035760;28;20088;-84
2023/01/12 06:04:08;;;;;;;5.57;1.65;;;8.70;99.90;;;;;;5088482;28;20408;-83
2023/01/12 06:06:47;;;;;;;6.28;1.80;;;8.60;99.90;;;;;;5053398;28;20438;-83
2023/01/12 06:09:45;;;;;;;5.18;1.42;;;8.70;99.90;;;;;;5079857;28;20048;-83
2023/01/12 06:15:39;;;;;;;4.85;1.50;;;8.70;99.90;;;;;;5077815;28;20391;-84
2023/01/12 06:18:08;;;;;;;3.40;1.50;;;8.70;99.90;;;;;;5059813;28;20055;-82
2023/01/12 06:21:05;;;;;;;3.08;1.48;;;8.70;99.90;;;;;;5076023;28;20035;-85
2023/01/12 06:23:49;;;;;;;4.15;1.70;;;8.80;99.90;;;;;;5063537;28;20133;-85
2023/01/12 06:30:09;;;;;;;3.45;1.10;;;8.80;99.90;;;;;;5017431;28;20052;-83
2023/01/12 06:33:20;;;;;;;3.67;1.42;;;8.80;99.90;;;;;;4995757;28;20127;-84
2023/01/12 06:36:17;;;;;;;2.80;1.10;;;8.90;99.90;;;;;;5036832;28;20548;-84
2023/01/12 06:38:53;;;;;;;3.88;1.55;;;8.90;99.90;;;;;;5023814;28;20397;-84
2023/01/12 06:56:55;;;;;;;1.92;1.20;;;8.90;99.90;;;;;;4994214;28;20048;-83
2023/01/12 06:59:33;;;;;;;2.88;1.38;;;9.00;99.90;;;;;;5013562;28;20045;-84
2023/01/12 07:02:54;;;;;;;4.38;1.45;;;8.90;99.90;;;;;;4998711;28;20053;-84
2023/01/12 07:15:58;;;;;;;2.67;1.55;;;9.00;99.90;;;;;;4971313;28;20110;-84
2023/01/12 07:22:03;;;;;;;2.45;1.70;;;9.10;99.90;;;;;;4956690;28;20043;-84
2023/01/12 07:24:50;;;;;;;2.88;1.58;;;9.10;99.90;;;;;;5015671;28;20045;-84
2023/01/12 07:27:27;;;;;;;3.17;1.60;;;9.10;99.90;;;;;;4982431;28;20046;-84
2023/01/12 07:33:53;;;;;;;3.50;1.80;;;9.10;99.90;;;;;;5012050;28;20085;-84
2023/01/12 07:36:25;;;;;;;2.35;1.85;;;9.20;99.90;;;;;;4969855;28;20053;-84
2023/01/12 07:43:27;;;;;;;3.45;1.92;;;9.20;99.90;;;;;;5031155;28;20456;-84
2023/01/12 07:45:58;;;;;;;3.58;2.25;;;9.20;99.90;;;;;;4992344;28;20066;-84
2023/01/12 07:48:29;;;;;;;5.70;2.35;;;9.20;99.90;;;;;;4958979;28;20057;-84
2023/01/12 07:50:57;;;;;;;4.25;2.63;;;9.20;99.90;;;;;;4956892;28;20051;-85
2023/01/12 07:54:03;;;;;;;4.15;2.70;;;9.20;99.90;;;;;;4974223;28;20384;-84
2023/01/12 08:03:53;;;;;;;7.80;3.20;;;9.30;99.90;;;;;;4976807;28;20046;-84
2023/01/12 08:09:27;;;;;;;6.47;2.47;;;9.30;99.90;;;;;;5048189;28;20158;-84
2023/01/12 08:12:01;;;;;;;11.55;3.20;;;9.40;99.90;;;;;;5027060;28;20048;-84
2023/01/12 08:14:35;;;;;;;11.52;3.15;;;9.40;99.90;;;;;;5002899;28;20797;-84
2023/01/12 08:17:11;;;;;;;13.95;3.15;;;9.40;99.90;;;;;;5012593;28;20173;-84
2023/01/12 08:19:47;;;;;;;;;;;9.40;99.90;;;;;;5029011;28;20599;-84
2023/01/12 08:22:26;;;;;;;13.70;2.83;;;9.50;99.90;;;;;;5024477;28;19927;-84
2023/01/12 08:25:01;;;;;;;19.58;4.18;;;9.60;99.90;;;;;;5036323;28;20052;-85
2023/01/12 08:27:35;;;;;;;19.45;3.80;;;9.70;99.90;;;;;;5036342;28;20048;-84
2023/01/12 08:30:36;;;;;;;23.05;3.67;;;9.80;99.90;;;;;;5019991;28;20396;-84
2023/01/12 08:36:32;;;;;;;31.48;4.32;;;9.90;99.90;;;;;;5028935;28;20049;-84
2023/01/12 08:40:03;;;;;;;27.10;4.43;;;10.00;99.90;;;;;;5014706;28;20037;-84
2023/01/12 08:42:53;;;;;;;29.55;4.10;;;10.00;99.90;;;;;;5031603;28;20044;-84
2023/01/12 08:49:22;;;;;;;26.27;3.95;;;10.30;99.90;;;;;;5042893;28;20044;-84
2023/01/12 08:52:34;;;;;;;31.08;4.22;;;10.40;99.90;;;;;;5046686;28;20128;-84
2023/01/12 08:55:19;;;;;;;;;;;10.40;99.90;;;;;;5026911;28;20040;-84
2023/01/12 08:57:54;;;;;;;25.38;3.40;;;10.50;99.90;;;;;;5051571;28;20019;-84
2023/01/12 09:07:48;;;;;;;29.33;5.00;;;10.60;99.90;;;;;;5019010;28;20046;-84
2023/01/12 09:10:17;;;;;;;22.90;3.83;;;10.60;99.90;;;;;;4968224;28;20177;-84
2023/01/12 09:16:37;;;;;;;27.00;4.63;;;10.70;99.90;;;;;;4922336;29;20095;-84
2023/01/12 09:19:56;;;;;;;26.80;4.20;;;10.70;99.90;;;;;;5005826;28;20520;-84
2023/01/12 09:25:51;;;;;;;20.58;3.55;;;10.80;99.90;;;;;;5015459;28;20553;-84
2023/01/12 09:29:02;;;;;;;24.23;4.00;;;10.90;99.90;;;;;;4994149;28;20053;-83
2023/01/12 09:34:30;;;;;;;23.83;4.28;;;11.00;99.90;;;;;;5030450;28;20052;-84
2023/01/12 09:37:20;;;;;;;25.95;4.35;;;11.00;99.90;;;;;;5023466;28;20044;-84
2023/01/12 09:39:50;;;;;;;18.33;3.15;;;11.00;99.90;;;;;;5065027;28;20040;-84
2023/01/12 09:51:46;;;;;;;19.20;4.07;;;11.10;99.90;;;;;;5015829;28;20051;-84
2023/01/12 09:54:51;;;;;;;19.52;3.20;;;11.10;99.90;;;;;;5007817;28;20086;-85
2023/01/12 10:01:12;;;;;;;17.80;3.35;;;11.10;99.90;;;;;;5019476;28;20046;-85
2023/01/12 10:04:42;;;;;;;22.58;3.60;;;11.00;99.90;;;;;;5046112;28;20043;-85
2023/01/12 10:07:19;;;;;;;21.90;3.53;;;11.00;99.90;;;;;;5072982;28;20056;-85
2023/01/12 10:10:10;;;;;;;31.20;4.57;;;11.00;99.90;;;;;;5061510;28;20069;-85
2023/01/12 10:12:50;;;;;;;19.92;3.50;;;10.90;99.90;;;;;;5048514;28;20476;-84
2023/01/12 10:15:40;;;;;;;26.02;4.20;;;10.90;99.90;;;;;;5061823;28;20148;-85
2023/01/12 10:18:47;;;;;;;20.33;4.15;;;10.90;99.90;;;;;;5076010;28;20042;-85
2023/01/12 10:21:36;;;;;;;23.13;3.83;;;10.80;99.90;;;;;;5004507;28;20056;-84
2023/01/12 10:27:48;;;;;;;19.08;3.20;;;10.80;99.90;;;;;;5049369;28;20588;-84
2023/01/12 10:30:40;;;;;;;18.42;3.08;;;10.70;99.90;;;;;;5048260;28;20035;-84
2023/01/12 10:36:15;;;;;;;31.10;4.72;;;10.70;99.90;;;;;;5059531;28;20048;-83
2023/01/12 10:39:20;;;;;;;31.52;4.32;;;10.70;99.90;;;;;;5074549;28;20036;-84
2023/01/12 10:45:43;;;;;;;20.80;3.90;;;10.70;99.90;;;;;;5069292;28;20095;-84
2023/01/12 10:48:37;;;;;;;28.55;4.25;;;10.70;99.90;;;;;;5060926;28;20051;-84
2023/01/12 10:51:47;;;;;;;20.67;3.42;;;10.70;99.90;;;;;;5072081;28;20063;-84
2023/01/12 10:54:26;;;;;;;26.27;4.07;;;10.70;99.90;;;;;;5043985;28;20051;-84
2023/01/12 10:57:28;;;;;;;20.50;3.92;;;10.80;99.90;;;;;;5060894;28;20052;-84
2023/01/12 11:00:03;;;;;;;18.90;3.55;;;10.90;99.90;;;;;;5052289;28;20032;-84
2023/01/12 11:02:58;;;;;;;24.15;3.40;;;11.00;99.90;;;;;;5040547;28;20126;-84
2023/01/12 11:05:53;;;;;;;21.75;3.58;;;10.90;99.90;;;;;;5069094;28;20492;-84
2023/01/12 11:11:20;;;;;;;18.30;3.85;;;11.10;99.90;;;;;;5029954;28;20041;-84
2023/01/12 11:14:22;;;;;;;24.10;4.35;;;11.10;99.90;;;;;;5016476;28;20091;-84
2023/01/12 11:23:33;;;;;;;22.17;3.97;;;11.30;99.90;;;;;;5013775;28;20055;-84
2023/01/12 11:26:16;;;;;;;26.70;4.80;;;11.30;99.90;;;;;;5031184;28;20056;-84
2023/01/12 11:32:06;;;;;;;19.38;3.88;;;11.40;99.90;;;;;;5015370;28;20048;-84
2023/01/12 11:38:51;;;;;;;23.08;3.97;;;11.30;99.90;;;;;;4951807;29;20421;-84
2023/01/12 11:41:39;;;;;;;21.10;3.58;;;11.30;99.90;;;;;;4996606;28;20415;-85
2023/01/12 11:44:34;;;;;;;27.30;4.38;;;11.30;99.90;;;;;;5072181;28;20067;-84
2023/01/12 11:47:11;;;;;;;23.27;4.70;;;11.30;99.90;;;;;;5018387;28;20056;-84
2023/01/12 11:53:22;;;;;;;24.75;4.63;;;11.30;99.90;;;;;;5052678;28;20044;-85
2023/01/12 11:56:26;;;;;;;24.17;4.65;;;11.20;99.90;;;;;;5055536;28;20051;-85
2023/01/12 11:59:58;;;;;;;20.73;3.97;;;11.20;99.90;;;;;;5053083;28;20102;-84
2023/01/12 12:04:02;;;;;;;19.58;4.13;;;11.20;99.90;;;;;;5063786;28;20045;-84
2023/01/12 12:06:26;;;;;;;27.83;4.53;;;11.20;99.90;;;;;;5055866;28;20048;-84
2023/01/12 12:09:15;;;;;;;22.40;4.30;;;11.30;99.90;;;;;;5055156;28;20072;-85
2023/01/12 12:12:11;;;;;;;21.45;4.25;;;11.40;99.90;;;;;;5042269;28;20044;-85
2023/01/12 12:15:01;;;;;;;25.10;4.20;;;11.40;99.90;;;;;;5065167;28;20052;-85
2023/01/12 12:17:39;;;;;;;29.05;4.50;;;11.50;99.90;;;;;;5058628;28;20060;-85
2023/01/12 12:20:41;;;;;;;23.08;4.13;;;11.50;99.90;;;;;;5063026;28;20481;-84
2023/01/12 12:23:37;;;;;;;18.70;3.88;;;11.60;99.90;;;;;;5056968;28;20051;-85
2023/01/12 12:26:50;;;;;;;21.70;3.90;;;11.60;99.90;;;;;;5047722;28;20496;-85
2023/01/12 12:30:11;;;;;;;27.95;4.05;;;11.60;99.90;;;;;;5052703;28;20602;-85
2023/01/12 12:33:04;;;;;;;24.80;4.15;;;11.60;99.90;;;;;;5073693;28;20094;-85
2023/01/12 12:36:04;;;;;;;18.77;3.75;;;11.60;99.90;;;;;;5059702;28;20047;-85
2023/01/12 12:39:16;;;;;;;18.52;4.43;;;11.60;99.90;;;;;;5055210;28;20046;-85
2023/01/12 12:49:00;;;;;;;18.05;3.80;;;11.60;99.90;;;;;;5063586;28;20488;-85
2023/01/12 12:52:01;;;;;;;22.73;4.13;;;11.60;99.90;;;;;;5052132;28;20177;-85
2023/01/12 12:54:59;;;;;;;;;;;;;;;;;;;;;
2023/01/12 12:58:22;;;;;;;15.50;3.85;;;11.60;99.90;;;;;;5098629;28;20035;-85
2023/01/12 13:10:09;;;;;;;16.42;3.60;;;11.60;99.90;;;;;;5079037;28;20127;-85
2023/01/12 13:16:20;;;;;;;21.85;4.07;;;11.50;99.90;;;;;;5075516;28;20416;-85
2023/01/12 13:19:22;;;;;;;19.10;3.15;;;11.40;99.90;;;;;;5058980;28;20073;-84
2023/01/12 13:22:39;;;;;;;24.13;3.55;;;11.30;99.90;;;;;;5077831;28;20036;-84
2023/01/12 13:25:23;;;;;;;;;;;11.30;99.90;;;;;;5072212;28;20040;-84
2023/01/12 13:27:55;;;;;;;19.73;3.42;;;11.20;99.90;;;;;;5076687;28;20418;-84
2023/01/12 13:41:16;;;;;;;13.73;3.00;;;11.10;99.90;;;;;;5074390;28;20076;-84
2023/01/12 13:47:36;;;;;;;11.43;2.75;;;11.10;99.90;;;;;;5076152;28;20071;-85
2023/01/12 13:50:20;;;;;;;16.15;2.83;;;11.10;99.90;;;;;;4975054;28;20137;-84
2023/01/12 13:56:18;;;;;;;13.80;2.70;;;11.10;99.90;;;;;;5067364;28;20040;-83
2023/01/12 13:59:36;;;;;;;13.52;2.60;;;11.00;99.90;;;;;;5055094;28;20059;-84
2023/01/12 14:02:24;;;;;;;12.83;3.00;;;11.00;99.90;;;;;;5089267;28;20075;-84
2023/01/12 14:05:35;;;;;;;11.02;2.42;;;11.00;99.90;;;;;;5055792;28;20052;-84
2023/01/12 14:08:04;;;;;;;15.35;2.40;;;11.00;99.90;;;;;;5047812;28;20041;-84
2023/01/12 14:21:06;;;;;;;11.10;3.08;;;11.00;99.90;;;;;;4954464;28;20075;-84
2023/01/12 14:23:57;;;;;;;8.88;1.67;;;9.90;99.90;;;;;;4940397;28;20146;-84
2023/01/12 14:26:33;;;;;;;8.20;2.10;;;11.00;99.90;;;;;;4934810;28;20503;-84
2023/01/12 14:35:47;;;;;;;10.82;1.92;;;10.90;99.90;;;;;;4939763;28;20075;-85
2023/01/12 14:49:21;;;;;;;3.15;1.20;;;10.90;99.90;;;;;;4931946;28;20044;-85
2023/01/12 14:52:25;;;;;;;4.32;0.95;;;10.90;99.90;;;;;;5019294;28;20045;-84
2023/01/12 15:02:52;;;;;;;4.00;1.00;;;10.80;99.90;;;;;;5051405;28;20075;-85
2023/01/12 15:06:09;;;;;;;2.95;1.00;;;10.80;99.90;;;;;;5041119;28;20040;-85
2023/01/12 15:09:20;;;;;;;3.30;1.30;;;10.80;99.90;;;;;;5087485;28;20545;-85
2023/01/12 15:26:58;;;;;;;2.67;2.38;;;10.70;99.90;;;;;;5060044;28;20036;-85
2023/01/12 15:32:56;;;;;;;4.22;3.50;;;10.70;99.90;;;;;;5029540;28;20089;-85
2023/01/12 15:43:03;;;;;;;3.13;2.10;;;10.60;99.90;;;;;;4983780;28;20054;-84
2023/01/12 15:48:48;;;;;;;;;;;;;;;;;;;;;
2023/01/12 15:51:58;;;;;;;2.38;1.95;;;10.70;99.90;;;;;;5013977;28;20383;-85
2023/01/12 15:54:53;;;;;;;;;;;10.60;99.90;;;;;;4990166;28;20108;-84
2023/01/12 16:00:52;;;;;;;3.60;2.63;;;10.60;99.90;;;;;;5042410;28;20098;-85
2023/01/12 16:07:33;;;;;;;3.72;2.25;;;10.60;99.90;;;;;;5072364;28;20090;-85
2023/01/12 16:10:31;;;;;;;2.35;2.15;;;10.50;99.90;;;;;;5036782;28;20044;-86
2023/01/12 16:38:54;;;;;;;4.47;1.90;;;10.60;99.90;;;;;;4973717;28;20064;-87
2023/01/12 16:51:45;;;;;;;3.45;2.70;;;10.50;99.90;;;;;;4983721;28;20079;-85
2023/01/12 16:58:40;;;;;;;3.38;2.08;;;10.50;99.90;;;;;;5013302;28;20507;-85
2023/01/12 17:18:11;;;;;;;2.67;1.40;;;10.50;99.90;;;;;;5057680;28;20578;-86
2023/01/12 17:21:03;;;;;;;4.53;1.42;;;10.50;99.90;;;;;;5037163;28;20047;-86
2023/01/12 17:23:53;;;;;;;3.08;1.33;;;10.40;99.90;;;;;;5041659;28;20129;-86
2023/01/12 17:46:36;;;;;;;3.85;2.40;;;10.40;99.90;;;;;;5057205;28;20131;-85
2023/01/12 17:58:46;;;;;;;2.50;1.90;;;10.40;99.90;;;;;;5058630;28;20051;-85
2023/01/12 18:02:00;;;;;;;2.50;2.10;;;10.40;99.90;;;;;;5068882;28;20510;-86
2023/01/12 18:09:19;;;;;;;3.97;1.92;;;10.40;99.90;;;;;;5055031;28;20087;-85
2023/01/12 18:19:18;;;;;;;3.80;1.98;;;10.50;99.90;;;;;;4909294;29;20052;-84
2023/01/12 18:22:08;;;;;;;;;;;;;;;;;;;;;
2023/01/12 18:31:52;;;;;;;5.57;2.53;;;10.50;99.90;;;;;;4942621;28;20043;-85
2023/01/12 18:38:29;;;;;;;3.50;2.50;;;10.40;99.90;;;;;;4968101;28;20042;-86
2023/01/12 18:44:19;;;;;;;6.47;2.53;;;10.50;99.90;;;;;;4982338;28;20081;-85
2023/01/12 18:54:19;;;;;;;5.80;2.50;;;10.50;99.90;;;;;;5001937;28;20052;-84
2023/01/12 19:10:51;;;;;;;6.30;3.40;;;10.50;99.90;;;;;;4978191;28;20104;-86
2023/01/12 19:30:45;;;;;;;5.90;3.03;;;10.50;99.90;;;;;;4969365;28;20178;-85
2023/01/12 19:33:46;;;;;;;7.18;3.72;;;10.50;99.90;;;;;;5017179;28;20084;-85
2023/01/12 19:36:38;;;;;;;4.47;3.60;;;10.50;99.90;;;;;;5028506;28;20128;-85
2023/01/12 19:45:34;;;;;;;5.63;3.20;;;10.50;99.90;;;;;;5061320;28;20464;-85
2023/01/12 19:51:49;;;;;;;7.85;3.97;;;10.90;99.90;;;;;;5045762;28;20041;-86
2023/01/12 19:54:18;;;;;;;7.03;4.40;;;10.50;99.90;;;;;;5003846;28;20127;-86
2023/01/12 19:57:20;;;;;;;4.05;3.20;;;10.60;99.90;;;;;;5046797;28;20049;-86
2023/01/12 19:59:58;;;;;;;8.38;4.63;;;11.30;99.90;;;;;;5052911;28;20048;-86
2023/01/12 20:02:41;;;;;;;8.13;4.43;;;10.50;99.90;;;;;;5049824;28;20051;-84
2023/01/12 20:05:49;;;;;;;6.95;4.32;;;10.50;99.90;;;;;;5053786;28;20057;-87
2023/01/12 20:08:24;;;;;;;7.97;4.45;;;10.10;99.90;;;;;;5018131;28;20049;-87
2023/01/12 20:11:25;;;;;;;8.98;4.18;;;10.50;99.90;;;;;;5051231;28;20039;-86
2023/01/12 20:14:06;;;;;;;6.40;3.60;;;9.50;99.90;;;;;;5045360;28;20028;-86
2023/01/12 20:30:55;;;;;;;7.10;3.50;;;10.60;99.90;;;;;;5049274;28;20178;-87
2023/01/12 20:33:25;;;;;;;5.82;3.47;;;10.60;99.90;;;;;;5057221;28;20032;-87
2023/01/12 20:39:09;;;;;;;6.10;4.00;;;10.00;99.90;;;;;;5067701;28;20111;-87
2023/01/12 20:42:02;;;;;;;6.22;3.88;;;10.50;99.90;;;;;;5061770;28;20041;-87
2023/01/12 20:44:31;;;;;;;6.88;3.97;;;10.50;99.90;;;;;;5079559;28;20043;-86
2023/01/12 20:47:00;;;;;;;5.35;4.05;;;10.50;99.90;;;;;;5053245;28;20047;-87
2023/01/12 20:49:37;;;;;;;5.30;4.30;;;10.50;99.90;;;;;;5020885;28;20049;-86
2023/01/12 20:52:27;;;;;;;6.97;4.55;;;10.40;99.90;;;;;;5021607;28;20057;-87
2023/01/12 20:55:04;;;;;;;6.38;3.80;;;10.70;99.90;;;;;;5008456;28;20049;-87
2023/01/12 20:57:55;;;;;;;5.75;3.67;;;10.60;99.90;;;;;;5016935;28;20048;-87
2023/01/12 21:00:21;;;;;;;4.72;2.53;;;10.50;99.90;;;;;;5016106;28;20053;-87
2023/01/12 21:03:22;;;;;;;5.05;2.70;;;9.90;99.90;;;;;;5020106;28;20076;-87
2023/01/12 21:05:54;;;;;;;6.53;3.75;;;10.60;99.90;;;;;;5024827;28;20037;-86
2023/01/12 21:08:25;;;;;;;4.82;3.55;;;10.40;99.90;;;;;;5017369;28;20080;-87
2023/01/12 21:11:28;;;;;;;6.90;4.25;;;10.40;99.90;;;;;;5014003;28;20111;-87
2023/01/12 21:14:06;;;;;;;5.85;4.50;;;11.70;99.90;;;;;;5029665;28;20053;-86
2023/01/12 21:20:24;;;;;;;6.68;4.30;;;10.40;99.90;;;;;;5022718;28;20079;-87
2023/01/12 21:27:09;;;;;;;7.13;3.78;;;10.40;99.90;;;;;;5077908;28;20110;-87
2023/01/12 21:33:23;;;;;;;6.35;2.53;;;10.30;99.90;;;;;;5018957;28;20068;-86
2023/01/12 21:36:45;;;;;;;5.47;2.10;;;10.30;99.90;;;;;;5025563;28;20053;-86
2023/01/12 22:06:20;;;;;;;;;;;10.00;99.90;;;;;;5048112;28;20060;-83
2023/01/12 22:08:59;;;;;;;7.72;1.88;;;9.90;99.90;;;;;;5008697;28;19928;-84
2023/01/12 22:14:36;;;;;;;7.30;1.67;;;9.90;99.90;;;;;;5000009;28;20117;-84
2023/01/12 22:17:20;;;;;;;9.52;2.08;;;9.80;99.90;;;;;;4978347;28;20077;-84
2023/01/12 22:20:01;;;;;;;11.48;2.00;;;9.90;99.90;;;;;;4981816;28;20045;-84
2023/01/12 22:22:27;;;;;;;13.57;2.33;;;9.80;99.90;;;;;;4998113;28;20050;-84
2023/01/12 22:25:26;;;;;;;7.53;2.50;;;9.80;99.90;;;;;;5011347;28;20063;-85
2023/01/12 22:28:03;;;;;;;10.77;2.00;;;9.90;99.90;;;;;;5027019;28;20042;-84
2023/01/12 22:34:17;;;;;;;9.68;1.95;;;9.80;99.90;;;;;;5006599;28;20042;-83
2023/01/12 22:49:16;;;;;;;16.50;2.38;;;9.90;99.90;;;;;;5054920;28;20048;-84
2023/01/12 22:51:47;;;;;;;14.23;2.50;;;9.90;99.90;;;;;;5057586;28;20047;-84
2023/01/12 22:54:38;;;;;;;15.43;3.03;;;9.90;99.90;;;;;;5057922;28;20136;-84
2023/01/12 22:57:34;;;;;;;11.40;2.40;;;9.90;99.90;;;;;;5041022;28;20120;-84
2023/01/12 23:00:26;;;;;;;17.42;3.05;;;9.90;99.90;;;;;;5001449;28;20507;-85
2023/01/12 23:03:20;;;;;;;17.80;2.85;;;9.90;99.90;;;;;;4978364;28;20099;-84
2023/01/12 23:06:44;;;;;;;15.85;2.60;;;9.80;99.90;;;;;;5053336;28;20036;-83
2023/01/12 23:09:40;;;;;;;;;;;;;;;;;;;;;
2023/01/12 23:12:16;;;;;;;18.42;3.30;;;9.90;99.90;;;;;;5034862;28;20051;-84
2023/01/12 23:14:50;;;;;;;20.40;2.53;;;9.90;99.90;;;;;;5040721;28;20048;-84
2023/01/12 23:17:43;;;;;;;12.70;2.90;;;9.90;99.90;;;;;;5038337;28;20048;-84
2023/01/12 23:20:20;;;;;;;20.98;4.03;;;9.80;99.90;;;;;;5065678;28;20041;-83
2023/01/12 23:25:47;;;;;;;19.42;3.88;;;9.70;99.90;;;;;;5031544;28;20045;-84
2023/01/12 23:28:22;;;;;;;21.23;3.47;;;9.70;99.90;;;;;;5023229;28;20051;-84
2023/01/12 23:31:20;;;;;;;21.70;3.70;;;9.60;99.90;;;;;;5033181;28;20051;-84
2023/01/12 23:34:13;;;;;;;27.65;3.78;;;9.50;99.90;;;;;;5033828;28;20063;-84
2023/01/12 23:36:55;;;;;;;24.35;4.88;;;9.50;99.90;;;;;;5028728;28;20083;-83
2023/01/12 23:39:36;;;;;;;24.95;4.40;;;9.40;99.90;;;;;;5027747;28;20045;-84
2023/01/12 23:42:02;;;;;;;22.88;4.00;;;9.30;99.90;;;;;;5033034;28;20048;-84
2023/01/12 23:44:33;;;;;;;22.48;4.15;;;9.30;99.90;;;;;;5036404;28;20401;-83
2023/01/12 23:47:05;;;;;;;15.65;3.35;;;9.20;99.90;;;;;;5031778;28;20104;-83
2023/01/12 23:49:33;;;;;;;26.73;4.35;;;9.10;99.90;;;;;;5025710;28;20170;-83
2023/01/12 23:52:15;;;;;;;30.38;4.75;;;9.10;99.90;;;;;;5036271;28;20118;-83
2023/01/12 23:54:52;;;;;;;26.10;3.90;;;9.10;99.90;;;;;;5023106;28;20047;-83
2023/01/12 23:57:50;;;;;;;30.25;5.38;;;9.10;99.90;;;;;;5021851;28;20135;-83
